Jackson, NH (03846)

9:07 AM EST on January 21, 2017 (GMT -0500)
Higgins Location | | Change Station
Active Advisory: Gale Watch

Elev 1155 ft 44.12 °N, 71.20 °W | Updated 1 minute ago

Overcast
Overcast
29.8 °F
Feels Like 30 °F
N
1.0
Wind Variable Wind from West
Gusts 1.0 mph

Today
High -- | Low -- °F
--% Chance of Precip.
Yesterday
High -- | Low -- °F
Precip. -- in
Pressure 29.83 in
Visibility 10.0 miles
Clouds Scattered Clouds 1500 ft
Mostly Cloudy 2400 ft
Windchill 30 °F
Dew Point 26 °F
Humidity 84%
Rainfall 0.00 in
Snow Depth Not available.
7:12 AM 4:40 PM
Waning Crescent, 35% visible
METAR KIZG 211354Z AUTO 00000KT 10SM SCT015 BKN024 01/M03 A2982 RMK AO2 SLP102 T00111028
Pressure 29.83 in
Visibility 10.0 miles
Clouds Scattered Clouds 1500 ft
Mostly Cloudy 2400 ft
Windchill 30 °F
Dew Point 26 °F
Humidity 84%
Rainfall 0.00 in
Snow Depth Not available.
7:12 AM 4:40 PM
Waning Crescent, 35% visible
METAR KIZG 211354Z AUTO 00000KT 10SM SCT015 BKN024 01/M03 A2982 RMK AO2 SLP102 T00111028

Get Your Daily Forecast Email!

Thanks for signing up!

Be on the lookout for a verification email in your inbox.

You'll start receiving the daily forecast at 8 AM.

×

10-Day Weather Forecast

Almanac

Astronomy

Jan. 21, 2017 Rise Set
Actual Time
Civil Twilight
Nautical Twilight
Astronomical Twilight
Moon
Length of Visible Light
Length of Day
Tomorrow will be .
, % of the Moon is Illuminated

Today's Extremes

State Highs State Lows

Community

WunderPhotos

Upload Photos

1,962,540 photos uploaded!

WunderBlog® & News

Nearby

Air Quality

  Air Quality AQ Index Pollutant
Not available.

Snow Depth

Station Depth Elevation

Earthquake Activity

City Distance Mag. Time & Date
Minimum magnitude displayed is 2.5.

Coastal Water Temperatures

Place Temperature

Stations

Nearby Weather Stations

Station Location Temp. Windchill Dew Point Humidity Wind Precip. Elev Updated Type
                   

Watches & Warnings

Gale Watch
Issued: 3:39 AM EST Jan. 21, 2017 – National Weather Service

... Gale watch in effect from Monday afternoon through late Monday
night...

The National Weather Service in gray has issued a gale watch...
which is in effect from Monday afternoon through late Monday
night.

* Winds... east 20 to 30 kt with gusts up to 45 kt.

* Seas... 6 to 9 feet.

Precautionary/preparedness actions...

A gale watch is issued when the risk of gale force winds of 34 to
47 knots has significantly increased... but the specific timing
and/or location is still uncertain. It is intended to provide
additional lead time for mariners who may wish to consider
altering their plans.